Boston, Indiana
Current Conditions -  °F | °C
As of 3:35 PM on Thursday 27 Nov 2014 (Local Time) from KMWO Reporting Station
Overcast Overcast  
Wind Chill: 25°   Ceiling: 3000
Heat Index: 34°   Visibility: 10mi
Dew Point: 25°   Wind: 13mph
Humidity: 68%   Direction: 270°W
Pressure: 30.3"   Gusts: 17mph
Location:  39.74°N, 84.85°W
Report Text: KMWO 272035Z AUTO 27011G15KT 10SM SCT024 OVC030 01/M04 A3030 RMK AO2 T00121041
Loading
Personal Weather Stations






























Interactive Weather Map New forecast layout! Learn more

10-Day Weather Forecast

Advertisements
Track Severe Weather on mobile